Grimstead, Virginia
Current Conditions -  °F | °C
As of 1:35 PM on Sunday 21 Dec 2014 (Local Time) from KW75 Reporting Station
Scattered Clouds Scattered Clouds  
Wind Chill: 41°   Ceiling: Unl
Heat Index: 41°   Visibility: 10mi
Dew Point: 26°   Wind: 0mph
Humidity: 57%   Direction: NA
Pressure: 30.31"   Gusts: NA
Location:  37.5°N, 76.3°W
Report Text: KW75 211835Z AUTO 00000KT 10SM SCT070 05/M03 A3031 RMK AO1 T00491031
Loading
Personal Weather Stations






























Interactive Weather Map New forecast layout! Learn more

10-Day Weather Forecast

Advertisements
Track Severe Weather on mobile